sensor_id;sensor_type;location;lat;lon;timestamp;P1;durP1;ratioP1;P2;durP2;ratioP2
76656;SDS011;65576;47.714;9.414;2022-12-05T00:01:35;1.98;;;1.77;;
76656;SDS011;65576;47.714;9.414;2022-12-05T00:04:05;8.27;;;3.88;;
76656;SDS011;65576;47.714;9.414;2022-12-05T00:06:32;2.05;;;1.50;;
76656;SDS011;65576;47.714;9.414;2022-12-05T00:08:59;3.97;;;2.25;;
76656;SDS011;65576;47.714;9.414;2022-12-05T00:11:26;3.88;;;2.42;;
76656;SDS011;65576;47.714;9.414;2022-12-05T00:13:53;2.45;;;2.00;;
76656;SDS011;65576;47.714;9.414;2022-12-05T00:16:21;2.22;;;2.00;;
76656;SDS011;65576;47.714;9.414;2022-12-05T00:18:48;3.70;;;3.13;;
76656;SDS011;65576;47.714;9.414;2022-12-05T00:21:14;3.83;;;2.30;;
76656;SDS011;65576;47.714;9.414;2022-12-05T00:23:41;1.73;;;1.30;;
76656;SDS011;65576;47.714;9.414;2022-12-05T00:26:07;2.05;;;1.85;;
76656;SDS011;65576;47.714;9.414;2022-12-05T00:28:33;10.30;;;2.38;;
76656;SDS011;65576;47.714;9.414;2022-12-05T00:31:02;1.83;;;1.73;;
76656;SDS011;65576;47.714;9.414;2022-12-05T00:33:29;3.72;;;2.63;;
76656;SDS011;65576;47.714;9.414;2022-12-05T00:35:55;4.30;;;2.22;;
76656;SDS011;65576;47.714;9.414;2022-12-05T00:38:25;8.15;;;4.18;;
76656;SDS011;65576;47.714;9.414;2022-12-05T00:40:50;1.85;;;1.73;;
76656;SDS011;65576;47.714;9.414;2022-12-05T00:43:16;2.53;;;2.33;;
76656;SDS011;65576;47.714;9.414;2022-12-05T00:45:41;1.50;;;1.40;;
76656;SDS011;65576;47.714;9.414;2022-12-05T00:48:06;2.30;;;2.10;;
76656;SDS011;65576;47.714;9.414;2022-12-05T00:50:31;1.55;;;1.17;;
76656;SDS011;65576;47.714;9.414;2022-12-05T00:52:57;1.83;;;1.48;;
76656;SDS011;65576;47.714;9.414;2022-12-05T00:55:22;2.58;;;1.92;;
76656;SDS011;65576;47.714;9.414;2022-12-05T00:57:47;3.03;;;1.27;;
76656;SDS011;65576;47.714;9.414;2022-12-05T01:00:12;1.40;;;1.30;;
76656;SDS011;65576;47.714;9.414;2022-12-05T01:02:38;3.00;;;2.67;;
76656;SDS011;65576;47.714;9.414;2022-12-05T01:05:03;1.30;;;1.20;;
76656;SDS011;65576;47.714;9.414;2022-12-05T01:07:29;4.35;;;2.33;;
76656;SDS011;65576;47.714;9.414;2022-12-05T01:09:54;4.65;;;1.83;;
76656;SDS011;65576;47.714;9.414;2022-12-05T01:12:20;1.90;;;1.48;;
76656;SDS011;65576;47.714;9.414;2022-12-05T01:14:45;2.13;;;1.80;;
76656;SDS011;65576;47.714;9.414;2022-12-05T01:17:10;8.80;;;2.42;;
76656;SDS011;65576;47.714;9.414;2022-12-05T01:19:36;3.92;;;1.75;;
76656;SDS011;65576;47.714;9.414;2022-12-05T01:22:01;4.65;;;2.35;;
76656;SDS011;65576;47.714;9.414;2022-12-05T01:24:26;3.05;;;2.42;;
76656;SDS011;65576;47.714;9.414;2022-12-05T01:26:53;2.20;;;1.83;;
76656;SDS011;65576;47.714;9.414;2022-12-05T01:29:20;2.80;;;2.25;;
76656;SDS011;65576;47.714;9.414;2022-12-05T01:31:46;4.93;;;3.35;;
76656;SDS011;65576;47.714;9.414;2022-12-05T01:34:12;5.93;;;2.25;;
76656;SDS011;65576;47.714;9.414;2022-12-05T01:36:39;4.13;;;2.42;;
76656;SDS011;65576;47.714;9.414;2022-12-05T01:39:05;5.22;;;3.10;;
76656;SDS011;65576;47.714;9.414;2022-12-05T01:41:33;7.90;;;3.63;;
76656;SDS011;65576;47.714;9.414;2022-12-05T01:46:35;9.25;;;4.00;;
76656;SDS011;65576;47.714;9.414;2022-12-05T01:51:37;4.10;;;2.97;;
76656;SDS011;65576;47.714;9.414;2022-12-05T01:54:05;3.95;;;1.80;;
76656;SDS011;65576;47.714;9.414;2022-12-05T01:56:31;5.88;;;3.08;;
76656;SDS011;65576;47.714;9.414;2022-12-05T01:58:58;3.13;;;2.33;;
76656;SDS011;65576;47.714;9.414;2022-12-05T02:01:25;1.58;;;1.40;;
76656;SDS011;65576;47.714;9.414;2022-12-05T02:03:51;7.25;;;2.55;;
76656;SDS011;65576;47.714;9.414;2022-12-05T02:06:19;7.97;;;1.67;;
76656;SDS011;65576;47.714;9.414;2022-12-05T02:08:46;6.80;;;3.58;;
76656;SDS011;65576;47.714;9.414;2022-12-05T02:11:12;4.00;;;2.95;;
76656;SDS011;65576;47.714;9.414;2022-12-05T02:13:42;4.28;;;2.97;;
76656;SDS011;65576;47.714;9.414;2022-12-05T02:19:37;5.40;;;2.63;;
76656;SDS011;65576;47.714;9.414;2022-12-05T02:24:52;7.72;;;3.95;;
76656;SDS011;65576;47.714;9.414;2022-12-05T02:27:43;5.90;;;2.70;;
76656;SDS011;65576;47.714;9.414;2022-12-05T02:30:23;4.40;;;2.53;;
76656;SDS011;65576;47.714;9.414;2022-12-05T02:35:29;3.90;;;2.63;;
76656;SDS011;65576;47.714;9.414;2022-12-05T02:40:51;4.43;;;2.15;;
76656;SDS011;65576;47.714;9.414;2022-12-05T02:43:36;3.03;;;1.90;;
76656;SDS011;65576;47.714;9.414;2022-12-05T02:48:35;5.50;;;2.20;;
76656;SDS011;65576;47.714;9.414;2022-12-05T02:51:02;3.28;;;2.47;;
76656;SDS011;65576;47.714;9.414;2022-12-05T02:53:29;3.88;;;3.00;;
76656;SDS011;65576;47.714;9.414;2022-12-05T02:55:55;3.83;;;2.45;;
76656;SDS011;65576;47.714;9.414;2022-12-05T02:58:23;5.50;;;3.80;;
76656;SDS011;65576;47.714;9.414;2022-12-05T03:00:55;3.70;;;2.75;;
76656;SDS011;65576;47.714;9.414;2022-12-05T03:03:21;3.78;;;2.45;;
76656;SDS011;65576;47.714;9.414;2022-12-05T03:05:55;12.75;;;2.50;;
76656;SDS011;65576;47.714;9.414;2022-12-05T03:08:28;7.45;;;2.95;;
76656;SDS011;65576;47.714;9.414;2022-12-05T03:10:58;2.60;;;2.22;;
76656;SDS011;65576;47.714;9.414;2022-12-05T03:13:28;9.02;;;2.55;;
76656;SDS011;65576;47.714;9.414;2022-12-05T03:16:01;4.30;;;2.72;;
76656;SDS011;65576;47.714;9.414;2022-12-05T03:18:35;4.95;;;3.13;;
76656;SDS011;65576;47.714;9.414;2022-12-05T03:21:11;10.68;;;4.30;;
76656;SDS011;65576;47.714;9.414;2022-12-05T03:23:47;4.85;;;2.53;;
76656;SDS011;65576;47.714;9.414;2022-12-05T03:26:45;15.57;;;2.85;;
76656;SDS011;65576;47.714;9.414;2022-12-05T03:29:19;5.30;;;2.65;;
76656;SDS011;65576;47.714;9.414;2022-12-05T03:34:32;3.90;;;1.77;;
76656;SDS011;65576;47.714;9.414;2022-12-05T03:37:08;3.17;;;2.72;;
76656;SDS011;65576;47.714;9.414;2022-12-05T03:39:39;3.63;;;2.50;;
76656;SDS011;65576;47.714;9.414;2022-12-05T03:42:12;4.25;;;3.20;;
76656;SDS011;65576;47.714;9.414;2022-12-05T03:44:51;3.08;;;2.58;;
76656;SDS011;65576;47.714;9.414;2022-12-05T03:50:16;2.33;;;2.00;;
76656;SDS011;65576;47.714;9.414;2022-12-05T03:52:50;3.03;;;2.30;;
76656;SDS011;65576;47.714;9.414;2022-12-05T03:55:21;3.35;;;3.05;;
76656;SDS011;65576;47.714;9.414;2022-12-05T03:57:52;6.43;;;3.33;;
76656;SDS011;65576;47.714;9.414;2022-12-05T04:00:22;5.50;;;2.97;;
76656;SDS011;65576;47.714;9.414;2022-12-05T04:03:01;4.47;;;2.97;;
76656;SDS011;65576;47.714;9.414;2022-12-05T04:08:21;2.88;;;2.63;;
76656;SDS011;65576;47.714;9.414;2022-12-05T04:10:52;2.72;;;2.53;;
76656;SDS011;65576;47.714;9.414;2022-12-05T04:13:23;7.60;;;3.53;;
76656;SDS011;65576;47.714;9.414;2022-12-05T04:15:56;4.88;;;3.55;;
76656;SDS011;65576;47.714;9.414;2022-12-05T04:18:43;5.38;;;2.80;;
76656;SDS011;65576;47.714;9.414;2022-12-05T04:21:14;2.25;;;2.05;;
76656;SDS011;65576;47.714;9.414;2022-12-05T04:24:02;3.65;;;2.50;;
76656;SDS011;65576;47.714;9.414;2022-12-05T04:27:05;3.10;;;2.83;;
76656;SDS011;65576;47.714;9.414;2022-12-05T04:29:39;3.47;;;2.88;;
76656;SDS011;65576;47.714;9.414;2022-12-05T04:32:09;4.30;;;2.78;;
76656;SDS011;65576;47.714;9.414;2022-12-05T04:34:37;5.72;;;3.63;;
76656;SDS011;65576;47.714;9.414;2022-12-05T04:37:06;3.65;;;2.28;;
76656;SDS011;65576;47.714;9.414;2022-12-05T04:39:36;7.43;;;2.92;;
76656;SDS011;65576;47.714;9.414;2022-12-05T04:42:08;5.20;;;2.78;;
76656;SDS011;65576;47.714;9.414;2022-12-05T04:44:41;4.50;;;2.65;;
76656;SDS011;65576;47.714;9.414;2022-12-05T04:47:09;5.10;;;4.07;;
76656;SDS011;65576;47.714;9.414;2022-12-05T04:49:38;9.35;;;3.28;;
76656;SDS011;65576;47.714;9.414;2022-12-05T04:52:07;3.88;;;3.03;;
76656;SDS011;65576;47.714;9.414;2022-12-05T04:54:42;6.40;;;2.97;;
76656;SDS011;65576;47.714;9.414;2022-12-05T04:59:53;3.40;;;2.38;;
76656;SDS011;65576;47.714;9.414;2022-12-05T05:02:20;8.85;;;3.17;;
76656;SDS011;65576;47.714;9.414;2022-12-05T05:04:52;5.68;;;3.97;;
76656;SDS011;65576;47.714;9.414;2022-12-05T05:07:21;10.82;;;4.97;;
76656;SDS011;65576;47.714;9.414;2022-12-05T05:09:47;6.60;;;3.60;;
76656;SDS011;65576;47.714;9.414;2022-12-05T05:12:12;7.88;;;2.88;;
76656;SDS011;65576;47.714;9.414;2022-12-05T05:14:38;5.07;;;3.80;;
76656;SDS011;65576;47.714;9.414;2022-12-05T05:17:03;5.82;;;3.30;;
76656;SDS011;65576;47.714;9.414;2022-12-05T05:19:28;4.50;;;3.63;;
76656;SDS011;65576;47.714;9.414;2022-12-05T05:21:54;16.05;;;7.45;;
76656;SDS011;65576;47.714;9.414;2022-12-05T05:24:19;16.00;;;6.03;;
76656;SDS011;65576;47.714;9.414;2022-12-05T05:26:49;8.68;;;5.35;;
76656;SDS011;65576;47.714;9.414;2022-12-05T05:29:15;15.07;;;5.75;;
76656;SDS011;65576;47.714;9.414;2022-12-05T05:31:41;6.15;;;2.90;;
76656;SDS011;65576;47.714;9.414;2022-12-05T05:34:07;8.05;;;3.92;;
76656;SDS011;65576;47.714;9.414;2022-12-05T05:36:33;4.45;;;3.30;;
76656;SDS011;65576;47.714;9.414;2022-12-05T05:38:59;8.15;;;3.70;;
76656;SDS011;65576;47.714;9.414;2022-12-05T05:41:26;5.38;;;3.47;;
76656;SDS011;65576;47.714;9.414;2022-12-05T05:43:54;4.10;;;2.47;;
76656;SDS011;65576;47.714;9.414;2022-12-05T05:46:20;9.48;;;2.78;;
76656;SDS011;65576;47.714;9.414;2022-12-05T05:48:49;4.50;;;3.05;;
76656;SDS011;65576;47.714;9.414;2022-12-05T05:51:15;5.35;;;3.20;;
76656;SDS011;65576;47.714;9.414;2022-12-05T05:53:42;4.03;;;3.25;;
76656;SDS011;65576;47.714;9.414;2022-12-05T05:56:09;5.00;;;3.40;;
76656;SDS011;65576;47.714;9.414;2022-12-05T05:58:36;5.07;;;2.72;;
76656;SDS011;65576;47.714;9.414;2022-12-05T06:01:06;3.95;;;3.45;;
76656;SDS011;65576;47.714;9.414;2022-12-05T06:03:33;6.35;;;2.58;;
76656;SDS011;65576;47.714;9.414;2022-12-05T06:06:00;5.35;;;2.83;;
76656;SDS011;65576;47.714;9.414;2022-12-05T06:08:28;5.68;;;3.05;;
76656;SDS011;65576;47.714;9.414;2022-12-05T06:10:58;4.03;;;2.20;;
76656;SDS011;65576;47.714;9.414;2022-12-05T06:13:23;3.45;;;2.63;;
76656;SDS011;65576;47.714;9.414;2022-12-05T06:15:49;3.70;;;3.13;;
76656;SDS011;65576;47.714;9.414;2022-12-05T06:18:14;10.18;;;4.32;;
76656;SDS011;65576;47.714;9.414;2022-12-05T06:20:40;5.63;;;3.63;;
76656;SDS011;65576;47.714;9.414;2022-12-05T06:23:05;5.82;;;3.75;;
76656;SDS011;65576;47.714;9.414;2022-12-05T06:25:30;3.20;;;2.15;;
76656;SDS011;65576;47.714;9.414;2022-12-05T06:27:55;4.63;;;3.35;;
76656;SDS011;65576;47.714;9.414;2022-12-05T06:30:21;4.22;;;2.47;;
76656;SDS011;65576;47.714;9.414;2022-12-05T06:32:46;5.40;;;3.25;;
76656;SDS011;65576;47.714;9.414;2022-12-05T06:35:11;8.80;;;4.00;;
76656;SDS011;65576;47.714;9.414;2022-12-05T06:37:42;4.25;;;2.78;;
76656;SDS011;65576;47.714;9.414;2022-12-05T06:40:08;4.00;;;2.08;;
76656;SDS011;65576;47.714;9.414;2022-12-05T06:42:35;5.05;;;2.67;;
76656;SDS011;65576;47.714;9.414;2022-12-05T06:45:00;3.90;;;3.38;;
76656;SDS011;65576;47.714;9.414;2022-12-05T06:47:25;5.80;;;3.83;;
76656;SDS011;65576;47.714;9.414;2022-12-05T06:49:51;3.50;;;2.20;;
76656;SDS011;65576;47.714;9.414;2022-12-05T06:52:16;3.78;;;2.80;;
76656;SDS011;65576;47.714;9.414;2022-12-05T06:54:41;6.95;;;3.47;;
76656;SDS011;65576;47.714;9.414;2022-12-05T06:57:07;3.08;;;2.00;;
76656;SDS011;65576;47.714;9.414;2022-12-05T06:59:33;3.65;;;2.20;;
76656;SDS011;65576;47.714;9.414;2022-12-05T07:01:58;6.05;;;3.47;;
76656;SDS011;65576;47.714;9.414;2022-12-05T07:04:24;6.40;;;3.67;;
76656;SDS011;65576;47.714;9.414;2022-12-05T07:06:50;5.32;;;3.30;;
76656;SDS011;65576;47.714;9.414;2022-12-05T07:09:18;6.93;;;3.65;;
76656;SDS011;65576;47.714;9.414;2022-12-05T07:11:48;4.22;;;2.90;;
76656;SDS011;65576;47.714;9.414;2022-12-05T07:14:14;2.63;;;2.42;;
76656;SDS011;65576;47.714;9.414;2022-12-05T07:16:40;9.02;;;3.30;;
76656;SDS011;65576;47.714;9.414;2022-12-05T07:19:05;4.30;;;3.05;;
76656;SDS011;65576;47.714;9.414;2022-12-05T07:21:30;4.38;;;3.15;;
76656;SDS011;65576;47.714;9.414;2022-12-05T07:23:56;4.72;;;3.10;;
76656;SDS011;65576;47.714;9.414;2022-12-05T07:26:22;7.07;;;4.03;;
76656;SDS011;65576;47.714;9.414;2022-12-05T07:28:48;4.32;;;3.70;;
76656;SDS011;65576;47.714;9.414;2022-12-05T07:31:15;7.15;;;4.40;;
76656;SDS011;65576;47.714;9.414;2022-12-05T07:33:43;10.95;;;3.78;;
76656;SDS011;65576;47.714;9.414;2022-12-05T07:36:09;3.92;;;2.92;;
76656;SDS011;65576;47.714;9.414;2022-12-05T07:38:40;4.55;;;3.15;;
76656;SDS011;65576;47.714;9.414;2022-12-05T07:41:06;6.18;;;3.85;;
76656;SDS011;65576;47.714;9.414;2022-12-05T07:43:33;8.15;;;3.17;;
76656;SDS011;65576;47.714;9.414;2022-12-05T07:46:05;3.67;;;3.20;;
76656;SDS011;65576;47.714;9.414;2022-12-05T07:48:31;6.57;;;3.60;;
76656;SDS011;65576;47.714;9.414;2022-12-05T07:51:00;6.53;;;3.90;;
76656;SDS011;65576;47.714;9.414;2022-12-05T07:53:27;5.20;;;2.75;;
76656;SDS011;65576;47.714;9.414;2022-12-05T07:55:53;2.78;;;2.10;;
76656;SDS011;65576;47.714;9.414;2022-12-05T07:58:18;3.45;;;1.98;;
76656;SDS011;65576;47.714;9.414;2022-12-05T08:00:44;5.20;;;3.20;;
76656;SDS011;65576;47.714;9.414;2022-12-05T08:03:09;7.07;;;3.40;;
76656;SDS011;65576;47.714;9.414;2022-12-05T08:05:34;5.82;;;3.30;;
76656;SDS011;65576;47.714;9.414;2022-12-05T08:07:59;3.97;;;3.33;;
76656;SDS011;65576;47.714;9.414;2022-12-05T08:10:25;3.53;;;2.08;;
76656;SDS011;65576;47.714;9.414;2022-12-05T08:12:50;6.18;;;3.22;;
76656;SDS011;65576;47.714;9.414;2022-12-05T08:15:16;3.92;;;2.38;;
76656;SDS011;65576;47.714;9.414;2022-12-05T08:17:41;9.45;;;4.60;;
76656;SDS011;65576;47.714;9.414;2022-12-05T08:20:06;9.48;;;3.55;;
76656;SDS011;65576;47.714;9.414;2022-12-05T08:22:32;14.07;;;3.67;;
76656;SDS011;65576;47.714;9.414;2022-12-05T08:24:57;2.22;;;2.05;;
76656;SDS011;65576;47.714;9.414;2022-12-05T08:27:22;4.75;;;2.97;;
76656;SDS011;65576;47.714;9.414;2022-12-05T08:29:48;5.55;;;3.20;;
76656;SDS011;65576;47.714;9.414;2022-12-05T08:32:13;2.88;;;2.47;;
76656;SDS011;65576;47.714;9.414;2022-12-05T08:34:38;3.25;;;1.73;;
76656;SDS011;65576;47.714;9.414;2022-12-05T08:37:03;2.45;;;2.25;;
76656;SDS011;65576;47.714;9.414;2022-12-05T08:39:29;4.75;;;2.88;;
76656;SDS011;65576;47.714;9.414;2022-12-05T08:41:55;3.63;;;2.25;;
76656;SDS011;65576;47.714;9.414;2022-12-05T08:44:20;2.95;;;1.85;;
76656;SDS011;65576;47.714;9.414;2022-12-05T08:46:47;2.92;;;2.15;;
76656;SDS011;65576;47.714;9.414;2022-12-05T08:49:13;3.55;;;2.63;;
76656;SDS011;65576;47.714;9.414;2022-12-05T08:51:40;1.23;;;1.13;;
76656;SDS011;65576;47.714;9.414;2022-12-05T08:54:06;1.70;;;1.40;;
76656;SDS011;65576;47.714;9.414;2022-12-05T08:56:32;5.03;;;1.63;;
76656;SDS011;65576;47.714;9.414;2022-12-05T08:58:58;1.15;;;1.05;;
76656;SDS011;65576;47.714;9.414;2022-12-05T09:01:23;1.05;;;0.80;;
76656;SDS011;65576;47.714;9.414;2022-12-05T09:03:55;0.82;;;0.82;;
76656;SDS011;65576;47.714;9.414;2022-12-05T09:06:22;0.77;;;0.77;;
76656;SDS011;65576;47.714;9.414;2022-12-05T09:08:52;0.73;;;0.73;;
76656;SDS011;65576;47.714;9.414;2022-12-05T09:11:21;2.03;;;1.63;;
76656;SDS011;65576;47.714;9.414;2022-12-05T09:13:49;0.52;;;0.52;;
76656;SDS011;65576;47.714;9.414;2022-12-05T09:16:17;0.63;;;0.60;;
76656;SDS011;65576;47.714;9.414;2022-12-05T09:18:44;0.75;;;0.70;;
76656;SDS011;65576;47.714;9.414;2022-12-05T09:21:16;0.90;;;0.85;;
76656;SDS011;65576;47.714;9.414;2022-12-05T09:23:43;2.10;;;1.90;;
76656;SDS011;65576;47.714;9.414;2022-12-05T09:26:10;1.10;;;1.00;;
76656;SDS011;65576;47.714;9.414;2022-12-05T09:28:37;1.80;;;0.98;;
76656;SDS011;65576;47.714;9.414;2022-12-05T09:31:04;0.60;;;0.60;;
76656;SDS011;65576;47.714;9.414;2022-12-05T09:33:31;2.70;;;0.77;;
76656;SDS011;65576;47.714;9.414;2022-12-05T09:36:00;0.40;;;0.40;;
76656;SDS011;65576;47.714;9.414;2022-12-05T09:38:27;1.02;;;0.70;;
76656;SDS011;65576;47.714;9.414;2022-12-05T09:41:39;6.30;;;2.75;;
76656;SDS011;65576;47.714;9.414;2022-12-05T09:49:59;2.45;;;0.80;;
76656;SDS011;65576;47.714;9.414;2022-12-05T09:52:32;0.65;;;0.65;;
76656;SDS011;65576;47.714;9.414;2022-12-05T09:55:02;0.65;;;0.65;;
76656;SDS011;65576;47.714;9.414;2022-12-05T09:57:36;0.88;;;0.75;;
76656;SDS011;65576;47.714;9.414;2022-12-05T10:00:04;1.02;;;0.75;;
76656;SDS011;65576;47.714;9.414;2022-12-05T10:02:34;0.90;;;0.90;;
76656;SDS011;65576;47.714;9.414;2022-12-05T10:05:14;1.48;;;0.85;;
76656;SDS011;65576;47.714;9.414;2022-12-05T10:08:01;0.75;;;0.70;;
76656;SDS011;65576;47.714;9.414;2022-12-05T10:14:01;0.57;;;0.57;;
76656;SDS011;65576;47.714;9.414;2022-12-05T10:16:34;0.50;;;0.50;;
76656;SDS011;65576;47.714;9.414;2022-12-05T10:19:13;0.43;;;0.43;;
76656;SDS011;65576;47.714;9.414;2022-12-05T10:21:54;2.45;;;1.10;;
76656;SDS011;65576;47.714;9.414;2022-12-05T10:24:45;0.68;;;0.68;;
76656;SDS011;65576;47.714;9.414;2022-12-05T10:27:13;0.70;;;0.70;;
76656;SDS011;65576;47.714;9.414;2022-12-05T10:30:12;2.38;;;1.42;;
76656;SDS011;65576;47.714;9.414;2022-12-05T10:32:43;0.47;;;0.47;;
76656;SDS011;65576;47.714;9.414;2022-12-05T10:35:15;0.82;;;0.82;;
76656;SDS011;65576;47.714;9.414;2022-12-05T10:37:43;1.98;;;1.35;;
76656;SDS011;65576;47.714;9.414;2022-12-05T10:40:12;0.50;;;0.50;;
76656;SDS011;65576;47.714;9.414;2022-12-05T10:42:38;0.70;;;0.70;;
76656;SDS011;65576;47.714;9.414;2022-12-05T10:45:07;0.70;;;0.70;;
76656;SDS011;65576;47.714;9.414;2022-12-05T10:47:39;1.38;;;0.70;;
76656;SDS011;65576;47.714;9.414;2022-12-05T10:50:24;1.13;;;0.88;;
76656;SDS011;65576;47.714;9.414;2022-12-05T10:52:55;0.40;;;0.40;;
76656;SDS011;65576;47.714;9.414;2022-12-05T10:55:22;0.57;;;0.55;;
76656;SDS011;65576;47.714;9.414;2022-12-05T10:58:07;0.63;;;0.63;;
76656;SDS011;65576;47.714;9.414;2022-12-05T11:00:35;0.50;;;0.25;;
76656;SDS011;65576;47.714;9.414;2022-12-05T11:03:02;0.80;;;0.80;;
76656;SDS011;65576;47.714;9.414;2022-12-05T11:05:30;1.17;;;0.73;;
76656;SDS011;65576;47.714;9.414;2022-12-05T11:07:57;0.52;;;0.52;;
76656;SDS011;65576;47.714;9.414;2022-12-05T11:10:29;2.25;;;1.20;;
76656;SDS011;65576;47.714;9.414;2022-12-05T11:12:57;2.03;;;1.10;;
76656;SDS011;65576;47.714;9.414;2022-12-05T11:15:25;3.00;;;0.75;;
76656;SDS011;65576;47.714;9.414;2022-12-05T11:17:53;0.80;;;0.80;;
76656;SDS011;65576;47.714;9.414;2022-12-05T11:22:47;0.80;;;0.80;;
76656;SDS011;65576;47.714;9.414;2022-12-05T11:27:52;0.47;;;0.47;;
76656;SDS011;65576;47.714;9.414;2022-12-05T11:30:19;2.05;;;0.70;;
76656;SDS011;65576;47.714;9.414;2022-12-05T11:32:46;0.60;;;0.60;;
76656;SDS011;65576;47.714;9.414;2022-12-05T11:35:25;1.08;;;0.63;;
76656;SDS011;65576;47.714;9.414;2022-12-05T11:37:54;3.92;;;1.02;;
76656;SDS011;65576;47.714;9.414;2022-12-05T11:48:49;9.53;;;0.80;;
76656;SDS011;65576;47.714;9.414;2022-12-05T11:56:59;1.48;;;1.10;;
76656;SDS011;65576;47.714;9.414;2022-12-05T12:05:37;5.65;;;2.83;;
76656;SDS011;65576;47.714;9.414;2022-12-05T12:08:20;10.32;;;2.47;;
76656;SDS011;65576;47.714;9.414;2022-12-05T12:10:53;1.40;;;1.17;;
76656;SDS011;65576;47.714;9.414;2022-12-05T12:13:32;1.42;;;1.20;;
76656;SDS011;65576;47.714;9.414;2022-12-05T12:21:44;3.17;;;1.80;;
76656;SDS011;65576;47.714;9.414;2022-12-05T12:27:44;4.75;;;2.97;;
76656;SDS011;65576;47.714;9.414;2022-12-05T12:30:20;6.95;;;2.65;;
76656;SDS011;65576;47.714;9.414;2022-12-05T12:32:56;3.83;;;2.53;;
76656;SDS011;65576;47.714;9.414;2022-12-05T12:35:27;1.75;;;1.52;;
76656;SDS011;65576;47.714;9.414;2022-12-05T12:38:05;1.80;;;0.90;;
76656;SDS011;65576;47.714;9.414;2022-12-05T12:40:59;1.07;;;1.00;;
76656;SDS011;65576;47.714;9.414;2022-12-05T12:46:39;0.77;;;0.55;;
76656;SDS011;65576;47.714;9.414;2022-12-05T12:51:52;3.05;;;1.17;;
76656;SDS011;65576;47.714;9.414;2022-12-05T13:01:57;1.50;;;1.23;;
76656;SDS011;65576;47.714;9.414;2022-12-05T13:04:40;1.17;;;1.08;;
76656;SDS011;65576;47.714;9.414;2022-12-05T13:07:40;1.55;;;1.30;;
76656;SDS011;65576;47.714;9.414;2022-12-05T13:12:54;1.77;;;1.45;;
76656;SDS011;65576;47.714;9.414;2022-12-05T13:18:05;3.78;;;0.98;;
76656;SDS011;65576;47.714;9.414;2022-12-05T13:23:01;1.63;;;1.05;;
76656;SDS011;65576;47.714;9.414;2022-12-05T13:25:29;1.77;;;1.63;;
76656;SDS011;65576;47.714;9.414;2022-12-05T13:27:58;1.20;;;0.90;;
76656;SDS011;65576;47.714;9.414;2022-12-05T13:30:25;2.22;;;1.02;;
76656;SDS011;65576;47.714;9.414;2022-12-05T13:33:03;2.25;;;1.38;;
76656;SDS011;65576;47.714;9.414;2022-12-05T13:35:35;0.80;;;0.70;;
76656;SDS011;65576;47.714;9.414;2022-12-05T13:38:21;2.05;;;1.38;;
76656;SDS011;65576;47.714;9.414;2022-12-05T13:41:11;2.53;;;0.50;;
76656;SDS011;65576;47.714;9.414;2022-12-05T13:43:56;1.33;;;1.23;;
76656;SDS011;65576;47.714;9.414;2022-12-05T13:46:26;2.30;;;1.20;;
76656;SDS011;65576;47.714;9.414;2022-12-05T13:48:58;6.88;;;1.23;;
76656;SDS011;65576;47.714;9.414;2022-12-05T13:51:36;3.72;;;1.10;;
76656;SDS011;65576;47.714;9.414;2022-12-05T13:54:09;1.80;;;1.30;;
76656;SDS011;65576;47.714;9.414;2022-12-05T13:56:53;2.03;;;1.73;;
76656;SDS011;65576;47.714;9.414;2022-12-05T14:10:06;1.45;;;1.35;;
76656;SDS011;65576;47.714;9.414;2022-12-05T14:12:44;1.10;;;0.90;;
76656;SDS011;65576;47.714;9.414;2022-12-05T14:15:26;0.82;;;0.68;;
76656;SDS011;65576;47.714;9.414;2022-12-05T14:17:59;1.38;;;1.27;;
76656;SDS011;65576;47.714;9.414;2022-12-05T14:31:14;0.98;;;0.90;;
76656;SDS011;65576;47.714;9.414;2022-12-05T14:39:37;1.52;;;1.20;;
76656;SDS011;65576;47.714;9.414;2022-12-05T14:43:07;1.90;;;1.65;;
76656;SDS011;65576;47.714;9.414;2022-12-05T14:47:55;2.40;;;1.23;;
76656;SDS011;65576;47.714;9.414;2022-12-05T14:53:13;1.02;;;0.98;;
76656;SDS011;65576;47.714;9.414;2022-12-05T14:58:47;1.25;;;1.15;;
76656;SDS011;65576;47.714;9.414;2022-12-05T15:12:19;1.63;;;1.42;;
76656;SDS011;65576;47.714;9.414;2022-12-05T15:14:50;2.22;;;1.27;;
76656;SDS011;65576;47.714;9.414;2022-12-05T15:17:20;1.63;;;1.50;;
76656;SDS011;65576;47.714;9.414;2022-12-05T15:19:50;1.85;;;1.27;;
76656;SDS011;65576;47.714;9.414;2022-12-05T15:22:21;4.20;;;3.47;;
76656;SDS011;65576;47.714;9.414;2022-12-05T15:24:50;4.25;;;2.70;;
76656;SDS011;65576;47.714;9.414;2022-12-05T15:27:15;3.92;;;2.13;;
76656;SDS011;65576;47.714;9.414;2022-12-05T15:29:41;3.95;;;2.95;;
76656;SDS011;65576;47.714;9.414;2022-12-05T15:50:14;4.57;;;3.00;;
76656;SDS011;65576;47.714;9.414;2022-12-05T15:52:49;8.35;;;4.43;;
76656;SDS011;65576;47.714;9.414;2022-12-05T15:55:19;6.03;;;4.38;;
76656;SDS011;65576;47.714;9.414;2022-12-05T15:57:59;3.67;;;2.95;;
76656;SDS011;65576;47.714;9.414;2022-12-05T16:00:31;1.65;;;1.55;;
76656;SDS011;65576;47.714;9.414;2022-12-05T16:05:57;2.15;;;1.83;;
76656;SDS011;65576;47.714;9.414;2022-12-05T16:08:25;2.00;;;1.70;;
76656;SDS011;65576;47.714;9.414;2022-12-05T16:11:05;2.03;;;1.75;;
76656;SDS011;65576;47.714;9.414;2022-12-05T16:13:31;3.83;;;3.05;;
76656;SDS011;65576;47.714;9.414;2022-12-05T16:15:57;4.07;;;2.42;;
76656;SDS011;65576;47.714;9.414;2022-12-05T16:18:23;3.47;;;3.05;;
76656;SDS011;65576;47.714;9.414;2022-12-05T16:20:54;2.53;;;2.25;;
76656;SDS011;65576;47.714;9.414;2022-12-05T16:25:50;1.95;;;1.45;;
76656;SDS011;65576;47.714;9.414;2022-12-05T16:28:17;2.15;;;1.83;;
76656;SDS011;65576;47.714;9.414;2022-12-05T16:30:53;4.13;;;1.80;;
76656;SDS011;65576;47.714;9.414;2022-12-05T16:33:23;2.60;;;1.83;;
76656;SDS011;65576;47.714;9.414;2022-12-05T16:35:50;2.35;;;1.45;;
76656;SDS011;65576;47.714;9.414;2022-12-05T16:43:16;1.25;;;1.15;;
76656;SDS011;65576;47.714;9.414;2022-12-05T16:48:37;1.67;;;1.52;;
76656;SDS011;65576;47.714;9.414;2022-12-05T16:53:35;7.22;;;5.15;;
76656;SDS011;65576;47.714;9.414;2022-12-05T16:56:02;8.57;;;6.40;;
76656;SDS011;65576;47.714;9.414;2022-12-05T16:58:28;4.93;;;3.72;;
76656;SDS011;65576;47.714;9.414;2022-12-05T17:00:58;2.63;;;1.90;;
76656;SDS011;65576;47.714;9.414;2022-12-05T17:03:25;4.85;;;2.92;;
76656;SDS011;65576;47.714;9.414;2022-12-05T17:05:51;3.25;;;2.15;;
76656;SDS011;65576;47.714;9.414;2022-12-05T17:08:17;3.92;;;2.10;;
76656;SDS011;65576;47.714;9.414;2022-12-05T17:10:42;1.77;;;1.65;;
76656;SDS011;65576;47.714;9.414;2022-12-05T17:13:08;5.75;;;1.63;;
76656;SDS011;65576;47.714;9.414;2022-12-05T17:15:37;2.13;;;1.73;;
76656;SDS011;65576;47.714;9.414;2022-12-05T17:18:05;3.75;;;2.45;;
76656;SDS011;65576;47.714;9.414;2022-12-05T17:20:36;11.20;;;7.35;;
76656;SDS011;65576;47.714;9.414;2022-12-05T17:23:04;8.32;;;3.72;;
76656;SDS011;65576;47.714;9.414;2022-12-05T17:25:30;3.00;;;2.05;;
76656;SDS011;65576;47.714;9.414;2022-12-05T17:28:01;16.75;;;7.35;;
76656;SDS011;65576;47.714;9.414;2022-12-05T17:30:26;14.45;;;6.10;;
76656;SDS011;65576;47.714;9.414;2022-12-05T17:32:52;8.95;;;4.63;;
76656;SDS011;65576;47.714;9.414;2022-12-05T17:35:18;6.55;;;5.05;;
76656;SDS011;65576;47.714;9.414;2022-12-05T17:37:44;8.60;;;6.68;;
76656;SDS011;65576;47.714;9.414;2022-12-05T17:40:10;27.48;;;19.73;;
76656;SDS011;65576;47.714;9.414;2022-12-05T17:42:37;17.13;;;12.00;;
76656;SDS011;65576;47.714;9.414;2022-12-05T17:45:03;8.20;;;5.78;;
76656;SDS011;65576;47.714;9.414;2022-12-05T17:47:32;11.13;;;6.63;;
76656;SDS011;65576;47.714;9.414;2022-12-05T17:49:57;8.50;;;6.30;;
76656;SDS011;65576;47.714;9.414;2022-12-05T17:52:23;6.43;;;5.47;;
76656;SDS011;65576;47.714;9.414;2022-12-05T17:54:48;5.55;;;4.90;;
76656;SDS011;65576;47.714;9.414;2022-12-05T17:57:13;5.60;;;4.93;;
76656;SDS011;65576;47.714;9.414;2022-12-05T17:59:38;5.40;;;3.67;;